MMD27C EHRD-EDLW
Flight info
| Callsign | MMD27C |
|---|---|
| Flight time | 0h 42m |
| Altitude | 9000 |
| Route | ARNEM L620 SONEB Z841 DOMEG DOMEG2A |
| Aircraft | AT76/M-SDFGIRY/S |
Departure
| Time | 2026-05-01 13:30 |
|---|---|
| Airport | Rotterdam The Hague Airport (EHRD) |
Arrival
| Time | 2026-05-01 14:13 |
|---|---|
| Airport | Dortmund Airport (EDLW) |
| Time | Latitude | Longitude | Altitude | Speed | Heading |
|---|---|---|---|---|---|
| 2026-05-01 13:14 | 51.95114 | 4.43483 | -3 ft | 0 kts | 327° |
| 2026-05-01 13:25 | 51.95116 | 4.43482 | -3 ft | 2 kts | 327° |
| 2026-05-01 13:25 | 51.95140 | 4.43459 | -3 ft | 3 kts | 344° |
| 2026-05-01 13:25 | 51.95175 | 4.43483 | -3 ft | 7 kts | 12° |
| 2026-05-01 13:25 | 51.95237 | 4.43440 | -3 ft | 11 kts | 311° |
| 2026-05-01 13:26 | 51.95216 | 4.43318 | -3 ft | 13 kts | 236° |
| 2026-05-01 13:26 | 51.95166 | 4.43202 | -3 ft | 11 kts | 237° |
| 2026-05-01 13:26 | 51.95140 | 4.43118 | -3 ft | 9 kts | 239° |
| 2026-05-01 13:26 | 51.95110 | 4.43017 | -3 ft | 6 kts | 258° |
| 2026-05-01 13:27 | 51.95110 | 4.43015 | -3 ft | 0 kts | 258° |
| 2026-05-01 13:27 | 51.95110 | 4.43014 | -3 ft | 0 kts | 258° |
| 2026-05-01 13:28 | 51.95112 | 4.42965 | -3 ft | 13 kts | 285° |
| 2026-05-01 13:29 | 51.95218 | 4.42850 | -2 ft | 1 kts | 47° |
| 2026-05-01 13:29 | 51.95571 | 4.43730 | -3 ft | 102 kts | 57° |
| 2026-05-01 13:30 | 51.97410 | 4.48550 | 1708 ft | 132 kts | 70° |
| 2026-05-01 13:31 | 51.98343 | 4.51709 | 2175 ft | 177 kts | 70° |
| 2026-05-01 13:31 | 52.00107 | 4.57141 | 3104 ft | 199 kts | 59° |
| 2026-05-01 13:32 | 52.02389 | 4.59373 | 4081 ft | 191 kts | 39° |
| 2026-05-01 13:33 | 52.03893 | 4.65117 | 5160 ft | 189 kts | 75° |
| 2026-05-01 13:33 | 52.04998 | 4.69056 | 5848 ft | 194 kts | 67° |
| 2026-05-01 13:34 | 52.06335 | 4.72923 | 6471 ft | 198 kts | 65° |
| 2026-05-01 13:34 | 52.07693 | 4.76813 | 7154 ft | 200 kts | 65° |
| 2026-05-01 13:35 | 52.09075 | 4.80748 | 7830 ft | 201 kts | 65° |
| 2026-05-01 13:35 | 52.09775 | 4.82735 | 8122 ft | 203 kts | 65° |
| 2026-05-01 13:35 | 52.10366 | 4.86932 | 8627 ft | 192 kts | 102° |
| 2026-05-01 13:36 | 52.10233 | 4.89095 | 8908 ft | 193 kts | 101° |
| 2026-05-01 13:36 | 52.10126 | 4.91289 | 9113 ft | 198 kts | 99° |
| 2026-05-01 13:36 | 52.10047 | 4.96007 | 9219 ft | 222 kts | 95° |
| 2026-05-01 13:37 | 52.10060 | 4.98538 | 9235 ft | 231 kts | 94° |
| 2026-05-01 13:37 | 52.10069 | 5.01206 | 9248 ft | 239 kts | 94° |
| 2026-05-01 13:37 | 52.10068 | 5.03955 | 9244 ft | 246 kts | 94° |
| 2026-05-01 13:37 | 52.10068 | 5.06766 | 9238 ft | 251 kts | 94° |
| 2026-05-01 13:38 | 52.10065 | 5.12525 | 9240 ft | 257 kts | 94° |
| 2026-05-01 13:38 | 52.10062 | 5.15443 | 9244 ft | 259 kts | 94° |
| 2026-05-01 13:38 | 52.10064 | 5.18348 | 9233 ft | 260 kts | 94° |
| 2026-05-01 13:39 | 52.10061 | 5.21299 | 9239 ft | 261 kts | 94° |
| 2026-05-01 13:39 | 52.10055 | 5.24246 | 9240 ft | 261 kts | 94° |
| 2026-05-01 13:39 | 52.10046 | 5.27202 | 9247 ft | 262 kts | 94° |
| 2026-05-01 13:39 | 52.10042 | 5.30163 | 9245 ft | 261 kts | 94° |
| 2026-05-01 13:40 | 52.10036 | 5.33124 | 9251 ft | 262 kts | 94° |
| 2026-05-01 13:40 | 52.10025 | 5.36094 | 9268 ft | 263 kts | 94° |
| 2026-05-01 13:40 | 52.10021 | 5.39040 | 9254 ft | 264 kts | 94° |
| 2026-05-01 13:40 | 52.10013 | 5.42031 | 9241 ft | 264 kts | 94° |
| 2026-05-01 13:41 | 52.10002 | 5.45019 | 9248 ft | 264 kts | 95° |
| 2026-05-01 13:41 | 52.09990 | 5.48003 | 9255 ft | 264 kts | 94° |
| 2026-05-01 13:41 | 52.09974 | 5.50988 | 9257 ft | 264 kts | 95° |
| 2026-05-01 13:41 | 52.09962 | 5.53981 | 9263 ft | 265 kts | 94° |
| 2026-05-01 13:42 | 52.09951 | 5.56979 | 9261 ft | 265 kts | 94° |
| 2026-05-01 13:42 | 52.09940 | 5.59976 | 9257 ft | 265 kts | 95° |
| 2026-05-01 13:42 | 52.09925 | 5.62966 | 9258 ft | 264 kts | 95° |
| 2026-05-01 13:42 | 52.09905 | 5.65962 | 9263 ft | 264 kts | 95° |
| 2026-05-01 13:43 | 52.09891 | 5.68910 | 9274 ft | 264 kts | 95° |
| 2026-05-01 13:43 | 52.09873 | 5.71900 | 9269 ft | 265 kts | 95° |
| 2026-05-01 13:43 | 52.09854 | 5.74890 | 9265 ft | 264 kts | 95° |
| 2026-05-01 13:43 | 52.09834 | 5.77887 | 9266 ft | 265 kts | 95° |
| 2026-05-01 13:44 | 52.09820 | 5.80883 | 9262 ft | 264 kts | 95° |
| 2026-05-01 13:44 | 52.09800 | 5.83871 | 9257 ft | 264 kts | 95° |
| 2026-05-01 13:44 | 52.09780 | 5.86857 | 9246 ft | 263 kts | 95° |
| 2026-05-01 13:44 | 52.09757 | 5.89793 | 9274 ft | 263 kts | 95° |
| 2026-05-01 13:45 | 52.09734 | 5.92807 | 9275 ft | 264 kts | 95° |
| 2026-05-01 13:45 | 52.09713 | 5.95753 | 9258 ft | 263 kts | 95° |
| 2026-05-01 13:45 | 52.09690 | 5.98720 | 9256 ft | 262 kts | 95° |
| 2026-05-01 13:45 | 52.09664 | 6.01678 | 9262 ft | 261 kts | 95° |
| 2026-05-01 13:46 | 52.09639 | 6.04630 | 9262 ft | 261 kts | 95° |
| 2026-05-01 13:46 | 52.09609 | 6.07582 | 9272 ft | 260 kts | 96° |
| 2026-05-01 13:46 | 52.09440 | 6.10492 | 9263 ft | 258 kts | 103° |
| 2026-05-01 13:46 | 52.09132 | 6.13359 | 9267 ft | 257 kts | 105° |
| 2026-05-01 13:47 | 52.08791 | 6.16211 | 9266 ft | 257 kts | 105° |
| 2026-05-01 13:47 | 52.08453 | 6.19064 | 9275 ft | 257 kts | 104° |
| 2026-05-01 13:47 | 52.08145 | 6.21889 | 9270 ft | 257 kts | 104° |
| 2026-05-01 13:47 | 52.07844 | 6.24760 | 9282 ft | 258 kts | 104° |
| 2026-05-01 13:48 | 52.07541 | 6.27641 | 9270 ft | 258 kts | 104° |
| 2026-05-01 13:48 | 52.07240 | 6.30523 | 9267 ft | 258 kts | 104° |
| 2026-05-01 13:48 | 52.06938 | 6.33403 | 9270 ft | 257 kts | 104° |
| 2026-05-01 13:48 | 52.06641 | 6.36229 | 9280 ft | 257 kts | 104° |
| 2026-05-01 13:49 | 52.06335 | 6.39097 | 9272 ft | 257 kts | 104° |
| 2026-05-01 13:49 | 52.06037 | 6.41968 | 9279 ft | 257 kts | 104° |
| 2026-05-01 13:49 | 52.05733 | 6.44824 | 9273 ft | 257 kts | 104° |
| 2026-05-01 13:49 | 52.05430 | 6.47680 | 9273 ft | 256 kts | 104° |
| 2026-05-01 13:50 | 52.05006 | 6.50440 | 9280 ft | 247 kts | 120° |
| 2026-05-01 13:50 | 52.03957 | 6.52602 | 9279 ft | 242 kts | 130° |
| 2026-05-01 13:50 | 52.03209 | 6.55064 | 9276 ft | 244 kts | 116° |
| 2026-05-01 13:50 | 52.02786 | 6.57706 | 9272 ft | 252 kts | 94° |
| 2026-05-01 13:51 | 52.03302 | 6.60467 | 9269 ft | 266 kts | 61° |
| 2026-05-01 13:51 | 52.04705 | 6.62474 | 9267 ft | 276 kts | 29° |
| 2026-05-01 13:51 | 52.06589 | 6.63099 | 9277 ft | 281 kts | 358° |
| 2026-05-01 13:51 | 52.08443 | 6.62159 | 9272 ft | 281 kts | 327° |
| 2026-05-01 13:52 | 52.09779 | 6.59912 | 9282 ft | 276 kts | 297° |
| 2026-05-01 13:52 | 52.10284 | 6.56990 | 9278 ft | 267 kts | 265° |
| 2026-05-01 13:52 | 52.09821 | 6.54170 | 9280 ft | 256 kts | 234° |
| 2026-05-01 13:52 | 52.08548 | 6.52295 | 9288 ft | 246 kts | 201° |
| 2026-05-01 13:53 | 52.06915 | 6.51928 | 9273 ft | 242 kts | 169° |
| 2026-05-01 13:53 | 52.04461 | 6.55417 | 9277 ft | 244 kts | 125° |
| 2026-05-01 13:53 | 52.03597 | 6.57811 | 9269 ft | 246 kts | 122° |
| 2026-05-01 13:54 | 52.02787 | 6.60264 | 9275 ft | 247 kts | 120° |
| 2026-05-01 13:54 | 52.02041 | 6.62780 | 9270 ft | 248 kts | 118° |
| 2026-05-01 13:54 | 52.01631 | 6.65493 | 9286 ft | 248 kts | 100° |
| 2026-05-01 13:54 | 52.01101 | 6.68080 | 9284 ft | 242 kts | 122° |
| 2026-05-01 13:55 | 52.00267 | 6.70473 | 9274 ft | 245 kts | 122° |
| 2026-05-01 13:55 | 51.99452 | 6.72908 | 9280 ft | 246 kts | 121° |
| 2026-05-01 13:55 | 51.98645 | 6.75374 | 9270 ft | 248 kts | 121° |
| 2026-05-01 13:55 | 51.97805 | 6.77805 | 9274 ft | 247 kts | 124° |
| 2026-05-01 13:56 | 51.96863 | 6.80139 | 9281 ft | 247 kts | 130° |
| 2026-05-01 13:56 | 51.95760 | 6.82241 | 9264 ft | 248 kts | 134° |
| 2026-05-01 13:56 | 51.94591 | 6.84299 | 9270 ft | 248 kts | 135° |
| 2026-05-01 13:56 | 51.93405 | 6.86340 | 9282 ft | 248 kts | 135° |
| 2026-05-01 13:57 | 51.92210 | 6.88373 | 9279 ft | 249 kts | 136° |
| 2026-05-01 13:57 | 51.91416 | 6.89723 | 9267 ft | 249 kts | 136° |
| 2026-05-01 13:57 | 51.89828 | 6.92416 | 9267 ft | 249 kts | 136° |
| 2026-05-01 13:57 | 51.88633 | 6.94439 | 9277 ft | 248 kts | 136° |
| 2026-05-01 13:58 | 51.87441 | 6.96457 | 9282 ft | 249 kts | 136° |
| 2026-05-01 13:58 | 51.86223 | 6.98425 | 9269 ft | 244 kts | 143° |
| 2026-05-01 13:58 | 51.85260 | 6.99427 | 9190 ft | 241 kts | 152° |
| 2026-05-01 13:58 | 51.83835 | 7.00700 | 9006 ft | 233 kts | 152° |
| 2026-05-01 13:59 | 51.82455 | 7.02005 | 8803 ft | 226 kts | 149° |
| 2026-05-01 13:59 | 51.81158 | 7.03378 | 8599 ft | 220 kts | 147° |
| 2026-05-01 13:59 | 51.79915 | 7.04781 | 8407 ft | 215 kts | 147° |
| 2026-05-01 13:59 | 51.78697 | 7.06159 | 8198 ft | 212 kts | 147° |
| 2026-05-01 14:00 | 51.77528 | 7.07475 | 7992 ft | 196 kts | 147° |
| 2026-05-01 14:00 | 51.76450 | 7.08685 | 7699 ft | 183 kts | 147° |
| 2026-05-01 14:00 | 51.75418 | 7.09843 | 7373 ft | 177 kts | 148° |
| 2026-05-01 14:00 | 51.74429 | 7.10942 | 7060 ft | 173 kts | 148° |
| 2026-05-01 14:01 | 51.73435 | 7.12038 | 6743 ft | 176 kts | 148° |
| 2026-05-01 14:01 | 51.72399 | 7.13172 | 6530 ft | 183 kts | 148° |
| 2026-05-01 14:01 | 51.71331 | 7.14336 | 6277 ft | 188 kts | 148° |
| 2026-05-01 14:01 | 51.70223 | 7.15543 | 6054 ft | 197 kts | 148° |
| 2026-05-01 14:02 | 51.69067 | 7.16792 | 5825 ft | 202 kts | 148° |
| 2026-05-01 14:02 | 51.67899 | 7.18068 | 5613 ft | 203 kts | 148° |
| 2026-05-01 14:02 | 51.66665 | 7.19068 | 5396 ft | 196 kts | 168° |
| 2026-05-01 14:02 | 51.65320 | 7.19430 | 5192 ft | 197 kts | 171° |
| 2026-05-01 14:03 | 51.63960 | 7.19749 | 4955 ft | 197 kts | 172° |
| 2026-05-01 14:03 | 51.62628 | 7.20035 | 4677 ft | 186 kts | 172° |
| 2026-05-01 14:03 | 51.61385 | 7.20285 | 4408 ft | 174 kts | 172° |
| 2026-05-01 14:03 | 51.60209 | 7.20536 | 4136 ft | 168 kts | 169° |
| 2026-05-01 14:04 | 51.59083 | 7.20842 | 3982 ft | 161 kts | 170° |
| 2026-05-01 14:04 | 51.57980 | 7.21164 | 3916 ft | 163 kts | 167° |
| 2026-05-01 14:04 | 51.56846 | 7.21554 | 3913 ft | 170 kts | 167° |
| 2026-05-01 14:04 | 51.55664 | 7.21941 | 3832 ft | 176 kts | 166° |
| 2026-05-01 14:05 | 51.54453 | 7.22391 | 3772 ft | 180 kts | 165° |
| 2026-05-01 14:05 | 51.53222 | 7.22871 | 3766 ft | 184 kts | 164° |
| 2026-05-01 14:05 | 51.51974 | 7.23428 | 3710 ft | 188 kts | 160° |
| 2026-05-01 14:05 | 51.50738 | 7.24184 | 3590 ft | 192 kts | 157° |
| 2026-05-01 14:06 | 51.49509 | 7.25032 | 3527 ft | 192 kts | 154° |
| 2026-05-01 14:06 | 51.48345 | 7.26089 | 3451 ft | 192 kts | 148° |
| 2026-05-01 14:06 | 51.47242 | 7.27216 | 3342 ft | 180 kts | 147° |
| 2026-05-01 14:06 | 51.46236 | 7.28270 | 3219 ft | 166 kts | 143° |
| 2026-05-01 14:07 | 51.45393 | 7.29453 | 3139 ft | 156 kts | 132° |
| 2026-05-01 14:07 | 51.44761 | 7.30836 | 3058 ft | 152 kts | 124° |
| 2026-05-01 14:07 | 51.44243 | 7.32292 | 3010 ft | 149 kts | 116° |
| 2026-05-01 14:08 | 51.43701 | 7.35449 | 3043 ft | 146 kts | 105° |
| 2026-05-01 14:08 | 51.43761 | 7.37031 | 2954 ft | 148 kts | 72° |
| 2026-05-01 14:08 | 51.44160 | 7.38551 | 2938 ft | 145 kts | 73° |
| 2026-05-01 14:08 | 51.44532 | 7.40051 | 2883 ft | 146 kts | 73° |
| 2026-05-01 14:09 | 51.44916 | 7.41584 | 2884 ft | 150 kts | 73° |
| 2026-05-01 14:09 | 51.45378 | 7.43112 | 2930 ft | 158 kts | 69° |
| 2026-05-01 14:09 | 51.45919 | 7.44641 | 2696 ft | 154 kts | 66° |
| 2026-05-01 14:09 | 51.46443 | 7.46030 | 2525 ft | 137 kts | 63° |
| 2026-05-01 14:10 | 51.46956 | 7.47272 | 2345 ft | 132 kts | 64° |
| 2026-05-01 14:10 | 51.47395 | 7.48535 | 2161 ft | 125 kts | 68° |
| 2026-05-01 14:10 | 51.47806 | 7.49756 | 2000 ft | 125 kts | 67° |
| 2026-05-01 14:10 | 51.48214 | 7.50986 | 1794 ft | 124 kts | 67° |
| 2026-05-01 14:11 | 51.48638 | 7.52153 | 1658 ft | 120 kts | 65° |
| 2026-05-01 14:11 | 51.49469 | 7.54535 | 1330 ft | 124 kts | 66° |
| 2026-05-01 14:11 | 51.49905 | 7.55735 | 1119 ft | 124 kts | 64° |
| 2026-05-01 14:12 | 51.50335 | 7.56920 | 964 ft | 120 kts | 67° |
| 2026-05-01 14:12 | 51.50727 | 7.58095 | 822 ft | 120 kts | 67° |
| 2026-05-01 14:12 | 51.51131 | 7.59227 | 646 ft | 113 kts | 68° |
| 2026-05-01 14:12 | 51.51513 | 7.60320 | 484 ft | 113 kts | 66° |
| 2026-05-01 14:13 | 51.51860 | 7.61304 | 410 ft | 68 kts | 61° |
| 2026-05-01 14:13 | 51.51976 | 7.61624 | 414 ft | 41 kts | 60° |
| 2026-05-01 14:13 | 51.52112 | 7.62008 | 411 ft | 23 kts | 60° |
| 2026-05-01 14:13 | 51.52185 | 7.62247 | 409 ft | 19 kts | 82° |
| 2026-05-01 14:14 | 51.52131 | 7.62365 | 407 ft | 8 kts | 150° |
| 2026-05-01 14:14 | 51.52126 | 7.62369 | 407 ft | 0 kts | 150° |
| 2026-05-01 14:14 | 51.52126 | 7.62370 | 407 ft | 0 kts | 150° |
| 2026-05-01 14:14 | 51.52124 | 7.62371 | 407 ft | 2 kts | 150° |
| 2026-05-01 14:15 | 51.52113 | 7.62381 | 407 ft | 1 kts | 151° |
| 2026-05-01 14:15 | 51.52086 | 7.62393 | 407 ft | 9 kts | 178° |
| 2026-05-01 14:15 | 51.52020 | 7.62304 | 408 ft | 19 kts | 238° |
| 2026-05-01 14:15 | 51.51954 | 7.62116 | 410 ft | 18 kts | 242° |
| 2026-05-01 14:16 | 51.51897 | 7.61954 | 407 ft | 16 kts | 239° |
| 2026-05-01 14:16 | 51.51838 | 7.61788 | 413 ft | 17 kts | 240° |
| 2026-05-01 14:16 | 51.51784 | 7.61632 | 414 ft | 16 kts | 241° |
| 2026-05-01 14:16 | 51.51724 | 7.61498 | 412 ft | 14 kts | 212° |
| 2026-05-01 14:17 | 51.51670 | 7.61466 | 416 ft | 6 kts | 208° |
| 2026-05-01 14:17 | 51.51641 | 7.61410 | 412 ft | 8 kts | 237° |
| 2026-05-01 14:17 | 51.51618 | 7.61345 | 412 ft | 7 kts | 242° |
| 2026-05-01 14:17 | 51.51600 | 7.61290 | 413 ft | 4 kts | 241° |
| 2026-05-01 14:18 | 51.51580 | 7.61238 | 414 ft | 5 kts | 238° |
| 2026-05-01 14:18 | 51.51580 | 7.61236 | 414 ft | 0 kts | 238° |
| 2026-05-01 14:18 | 51.51580 | 7.61237 | 414 ft | 0 kts | 245° |
| 2026-05-01 14:18 | 51.51582 | 7.61242 | 414 ft | 1 kts | 265° |
| 2026-05-01 14:19 | 51.51582 | 7.61252 | 416 ft | 1 kts | 303° |
| 2026-05-01 14:19 | 51.51579 | 7.61258 | 414 ft | 1 kts | 318° |
| 2026-05-01 14:19 | 51.51576 | 7.61263 | 415 ft | 1 kts | 329° |
| 2026-05-01 14:19 | 51.51572 | 7.61266 | 416 ft | 0 kts | 334° |
| 2026-05-01 14:20 | 51.51571 | 7.61267 | 417 ft | 0 kts | 334° |